sensor_id;sensor_type;location;lat;lon;timestamp;P1;durP1;ratioP1;P2;durP2;ratioP2
32080;SDS011;18593;51.426;7.030;2022-10-23T00:00:04;15.23;;;5.47;;
32080;SDS011;18593;51.426;7.030;2022-10-23T00:02:32;11.15;;;5.45;;
32080;SDS011;18593;51.426;7.030;2022-10-23T00:05:00;13.10;;;5.63;;
32080;SDS011;18593;51.426;7.030;2022-10-23T00:07:29;15.15;;;5.35;;
32080;SDS011;18593;51.426;7.030;2022-10-23T00:09:56;13.00;;;6.15;;
32080;SDS011;18593;51.426;7.030;2022-10-23T00:15:05;13.00;;;5.80;;
32080;SDS011;18593;51.426;7.030;2022-10-23T00:17:32;17.13;;;5.80;;
32080;SDS011;18593;51.426;7.030;2022-10-23T00:20:04;14.65;;;5.55;;
32080;SDS011;18593;51.426;7.030;2022-10-23T00:22:33;16.15;;;5.75;;
32080;SDS011;18593;51.426;7.030;2022-10-23T00:25:00;15.40;;;5.97;;
32080;SDS011;18593;51.426;7.030;2022-10-23T00:27:27;13.85;;;5.45;;
32080;SDS011;18593;51.426;7.030;2022-10-23T00:29:54;15.55;;;6.57;;
32080;SDS011;18593;51.426;7.030;2022-10-23T00:32:21;14.02;;;6.47;;
32080;SDS011;18593;51.426;7.030;2022-10-23T00:34:48;16.13;;;5.82;;
32080;SDS011;18593;51.426;7.030;2022-10-23T00:37:14;15.15;;;5.90;;
32080;SDS011;18593;51.426;7.030;2022-10-23T00:39:43;15.30;;;6.45;;
32080;SDS011;18593;51.426;7.030;2022-10-23T00:42:10;19.25;;;6.10;;
32080;SDS011;18593;51.426;7.030;2022-10-23T00:47:33;12.70;;;5.05;;
32080;SDS011;18593;51.426;7.030;2022-10-23T00:50:00;14.00;;;5.07;;
32080;SDS011;18593;51.426;7.030;2022-10-23T00:52:27;15.20;;;5.32;;
32080;SDS011;18593;51.426;7.030;2022-10-23T00:54:56;13.57;;;5.32;;
32080;SDS011;18593;51.426;7.030;2022-10-23T00:57:23;14.35;;;5.00;;
32080;SDS011;18593;51.426;7.030;2022-10-23T00:59:50;11.82;;;4.90;;
32080;SDS011;18593;51.426;7.030;2022-10-23T01:02:18;19.20;;;5.65;;
32080;SDS011;18593;51.426;7.030;2022-10-23T01:04:44;12.80;;;5.55;;
32080;SDS011;18593;51.426;7.030;2022-10-23T01:07:13;13.30;;;5.40;;
32080;SDS011;18593;51.426;7.030;2022-10-23T01:09:44;17.75;;;5.65;;
32080;SDS011;18593;51.426;7.030;2022-10-23T01:12:18;12.32;;;4.55;;
32080;SDS011;18593;51.426;7.030;2022-10-23T01:14:50;13.98;;;4.82;;
32080;SDS011;18593;51.426;7.030;2022-10-23T01:17:27;10.02;;;4.38;;
32080;SDS011;18593;51.426;7.030;2022-10-23T01:23:03;14.93;;;4.63;;
32080;SDS011;18593;51.426;7.030;2022-10-23T01:25:50;10.27;;;4.50;;
32080;SDS011;18593;51.426;7.030;2022-10-23T01:28:27;14.13;;;4.43;;
32080;SDS011;18593;51.426;7.030;2022-10-23T01:30:56;13.02;;;4.43;;
32080;SDS011;18593;51.426;7.030;2022-10-23T01:33:30;8.50;;;4.22;;
32080;SDS011;18593;51.426;7.030;2022-10-23T01:36:00;9.70;;;4.45;;
32080;SDS011;18593;51.426;7.030;2022-10-23T01:38:32;8.07;;;3.70;;
32080;SDS011;18593;51.426;7.030;2022-10-23T01:41:13;9.82;;;4.10;;
32080;SDS011;18593;51.426;7.030;2022-10-23T01:43:44;8.73;;;4.32;;
32080;SDS011;18593;51.426;7.030;2022-10-23T01:46:15;9.07;;;4.20;;
32080;SDS011;18593;51.426;7.030;2022-10-23T01:48:45;11.50;;;4.53;;
32080;SDS011;18593;51.426;7.030;2022-10-23T01:51:15;8.45;;;4.10;;
32080;SDS011;18593;51.426;7.030;2022-10-23T01:53:43;12.02;;;3.88;;
32080;SDS011;18593;51.426;7.030;2022-10-23T01:56:14;9.68;;;3.70;;
32080;SDS011;18593;51.426;7.030;2022-10-23T01:58:47;9.57;;;3.80;;
32080;SDS011;18593;51.426;7.030;2022-10-23T02:01:17;14.18;;;4.15;;
32080;SDS011;18593;51.426;7.030;2022-10-23T02:03:49;11.35;;;3.78;;
32080;SDS011;18593;51.426;7.030;2022-10-23T02:06:17;13.70;;;4.30;;
32080;SDS011;18593;51.426;7.030;2022-10-23T02:08:44;11.52;;;3.60;;
32080;SDS011;18593;51.426;7.030;2022-10-23T02:11:12;14.65;;;4.50;;
32080;SDS011;18593;51.426;7.030;2022-10-23T02:13:41;11.88;;;4.00;;
32080;SDS011;18593;51.426;7.030;2022-10-23T02:16:18;9.75;;;4.20;;
32080;SDS011;18593;51.426;7.030;2022-10-23T02:18:50;9.65;;;3.88;;
32080;SDS011;18593;51.426;7.030;2022-10-23T02:21:22;13.63;;;4.15;;
32080;SDS011;18593;51.426;7.030;2022-10-23T02:23:55;11.90;;;3.78;;
32080;SDS011;18593;51.426;7.030;2022-10-23T02:26:25;11.23;;;4.03;;
32080;SDS011;18593;51.426;7.030;2022-10-23T02:28:54;8.65;;;3.53;;
32080;SDS011;18593;51.426;7.030;2022-10-23T02:31:25;10.98;;;4.10;;
32080;SDS011;18593;51.426;7.030;2022-10-23T02:33:52;12.18;;;3.70;;
32080;SDS011;18593;51.426;7.030;2022-10-23T02:36:19;11.82;;;3.72;;
32080;SDS011;18593;51.426;7.030;2022-10-23T02:38:46;12.10;;;3.72;;
32080;SDS011;18593;51.426;7.030;2022-10-23T02:41:18;7.32;;;3.53;;
32080;SDS011;18593;51.426;7.030;2022-10-23T02:43:54;13.38;;;3.38;;
32080;SDS011;18593;51.426;7.030;2022-10-23T02:46:30;11.18;;;3.80;;
32080;SDS011;18593;51.426;7.030;2022-10-23T02:49:03;8.90;;;3.45;;
32080;SDS011;18593;51.426;7.030;2022-10-23T02:51:39;12.65;;;3.40;;
32080;SDS011;18593;51.426;7.030;2022-10-23T02:54:21;9.23;;;3.60;;
32080;SDS011;18593;51.426;7.030;2022-10-23T02:56:57;7.60;;;3.67;;
32080;SDS011;18593;51.426;7.030;2022-10-23T02:59:29;7.18;;;2.90;;
32080;SDS011;18593;51.426;7.030;2022-10-23T03:02:02;9.52;;;3.72;;
32080;SDS011;18593;51.426;7.030;2022-10-23T03:04:35;8.45;;;2.95;;
32080;SDS011;18593;51.426;7.030;2022-10-23T03:07:03;10.52;;;3.50;;
32080;SDS011;18593;51.426;7.030;2022-10-23T03:09:30;11.40;;;3.05;;
32080;SDS011;18593;51.426;7.030;2022-10-23T03:11:57;11.68;;;3.33;;
32080;SDS011;18593;51.426;7.030;2022-10-23T03:14:24;13.95;;;3.58;;
32080;SDS011;18593;51.426;7.030;2022-10-23T03:16:51;8.70;;;3.47;;
32080;SDS011;18593;51.426;7.030;2022-10-23T03:19:19;10.30;;;3.47;;
32080;SDS011;18593;51.426;7.030;2022-10-23T03:21:46;9.23;;;3.70;;
32080;SDS011;18593;51.426;7.030;2022-10-23T03:24:13;8.98;;;3.03;;
32080;SDS011;18593;51.426;7.030;2022-10-23T03:26:42;7.80;;;3.33;;
32080;SDS011;18593;51.426;7.030;2022-10-23T03:29:09;8.35;;;3.38;;
32080;SDS011;18593;51.426;7.030;2022-10-23T03:31:42;10.50;;;3.10;;
32080;SDS011;18593;51.426;7.030;2022-10-23T03:34:09;7.93;;;3.13;;
32080;SDS011;18593;51.426;7.030;2022-10-23T03:36:40;6.53;;;3.65;;
32080;SDS011;18593;51.426;7.030;2022-10-23T03:39:08;8.43;;;2.97;;
32080;SDS011;18593;51.426;7.030;2022-10-23T03:41:35;6.22;;;3.00;;
32080;SDS011;18593;51.426;7.030;2022-10-23T03:44:02;7.38;;;3.10;;
32080;SDS011;18593;51.426;7.030;2022-10-23T03:46:29;9.30;;;3.25;;
32080;SDS011;18593;51.426;7.030;2022-10-23T03:48:56;10.88;;;2.97;;
32080;SDS011;18593;51.426;7.030;2022-10-23T03:51:23;8.75;;;2.72;;
32080;SDS011;18593;51.426;7.030;2022-10-23T03:53:52;9.73;;;3.08;;
32080;SDS011;18593;51.426;7.030;2022-10-23T03:56:19;8.20;;;2.80;;
32080;SDS011;18593;51.426;7.030;2022-10-23T03:58:46;6.60;;;3.03;;
32080;SDS011;18593;51.426;7.030;2022-10-23T04:01:13;7.28;;;3.00;;
32080;SDS011;18593;51.426;7.030;2022-10-23T04:03:41;8.60;;;3.40;;
32080;SDS011;18593;51.426;7.030;2022-10-23T04:06:08;11.63;;;3.13;;
32080;SDS011;18593;51.426;7.030;2022-10-23T04:08:35;15.35;;;3.40;;
32080;SDS011;18593;51.426;7.030;2022-10-23T04:11:09;7.93;;;3.00;;
32080;SDS011;18593;51.426;7.030;2022-10-23T04:13:45;6.97;;;3.13;;
32080;SDS011;18593;51.426;7.030;2022-10-23T04:16:12;9.43;;;3.03;;
32080;SDS011;18593;51.426;7.030;2022-10-23T04:18:39;9.15;;;3.25;;
32080;SDS011;18593;51.426;7.030;2022-10-23T04:21:08;12.18;;;3.00;;
32080;SDS011;18593;51.426;7.030;2022-10-23T04:23:35;8.75;;;3.20;;
32080;SDS011;18593;51.426;7.030;2022-10-23T04:26:03;10.57;;;3.25;;
32080;SDS011;18593;51.426;7.030;2022-10-23T04:28:32;12.10;;;3.30;;
32080;SDS011;18593;51.426;7.030;2022-10-23T04:30:59;7.90;;;3.25;;
32080;SDS011;18593;51.426;7.030;2022-10-23T04:33:26;6.88;;;3.03;;
32080;SDS011;18593;51.426;7.030;2022-10-23T04:35:53;7.10;;;3.60;;
32080;SDS011;18593;51.426;7.030;2022-10-23T04:38:20;9.90;;;3.38;;
32080;SDS011;18593;51.426;7.030;2022-10-23T04:40:48;7.97;;;2.80;;
32080;SDS011;18593;51.426;7.030;2022-10-23T04:43:19;9.13;;;2.90;;
32080;SDS011;18593;51.426;7.030;2022-10-23T04:45:48;6.70;;;3.00;;
32080;SDS011;18593;51.426;7.030;2022-10-23T04:48:15;10.25;;;2.88;;
32080;SDS011;18593;51.426;7.030;2022-10-23T04:51:02;8.48;;;3.05;;
32080;SDS011;18593;51.426;7.030;2022-10-23T04:53:51;8.50;;;3.00;;
32080;SDS011;18593;51.426;7.030;2022-10-23T04:56:28;9.10;;;2.83;;
32080;SDS011;18593;51.426;7.030;2022-10-23T04:59:02;6.70;;;2.90;;
32080;SDS011;18593;51.426;7.030;2022-10-23T05:01:32;10.95;;;2.90;;
32080;SDS011;18593;51.426;7.030;2022-10-23T05:04:04;7.45;;;2.83;;
32080;SDS011;18593;51.426;7.030;2022-10-23T05:06:37;12.20;;;2.90;;
32080;SDS011;18593;51.426;7.030;2022-10-23T05:09:18;15.32;;;3.33;;
32080;SDS011;18593;51.426;7.030;2022-10-23T05:12:07;8.38;;;2.90;;
32080;SDS011;18593;51.426;7.030;2022-10-23T05:14:34;8.73;;;3.10;;
32080;SDS011;18593;51.426;7.030;2022-10-23T05:17:03;10.98;;;2.78;;
32080;SDS011;18593;51.426;7.030;2022-10-23T05:19:34;10.82;;;3.58;;
32080;SDS011;18593;51.426;7.030;2022-10-23T05:22:04;7.32;;;2.90;;
32080;SDS011;18593;51.426;7.030;2022-10-23T05:24:45;10.30;;;2.72;;
32080;SDS011;18593;51.426;7.030;2022-10-23T05:27:12;8.57;;;3.25;;
32080;SDS011;18593;51.426;7.030;2022-10-23T05:29:40;12.38;;;3.05;;
32080;SDS011;18593;51.426;7.030;2022-10-23T05:32:10;7.43;;;3.10;;
32080;SDS011;18593;51.426;7.030;2022-10-23T05:40:33;7.70;;;2.85;;
32080;SDS011;18593;51.426;7.030;2022-10-23T05:43:08;7.53;;;2.92;;
32080;SDS011;18593;51.426;7.030;2022-10-23T05:45:53;9.30;;;2.80;;
32080;SDS011;18593;51.426;7.030;2022-10-23T05:48:29;9.43;;;3.22;;
32080;SDS011;18593;51.426;7.030;2022-10-23T05:51:22;8.40;;;3.15;;
32080;SDS011;18593;51.426;7.030;2022-10-23T05:54:37;6.18;;;3.22;;
32080;SDS011;18593;51.426;7.030;2022-10-23T05:57:20;11.05;;;3.50;;
32080;SDS011;18593;51.426;7.030;2022-10-23T05:59:49;14.55;;;3.90;;
32080;SDS011;18593;51.426;7.030;2022-10-23T06:02:21;7.30;;;3.30;;
32080;SDS011;18593;51.426;7.030;2022-10-23T06:04:55;6.45;;;3.13;;
32080;SDS011;18593;51.426;7.030;2022-10-23T06:07:41;8.80;;;3.05;;
32080;SDS011;18593;51.426;7.030;2022-10-23T06:10:11;9.25;;;3.30;;
32080;SDS011;18593;51.426;7.030;2022-10-23T06:12:42;6.20;;;2.80;;
32080;SDS011;18593;51.426;7.030;2022-10-23T06:15:13;7.13;;;3.25;;
32080;SDS011;18593;51.426;7.030;2022-10-23T06:18:06;5.50;;;3.15;;
32080;SDS011;18593;51.426;7.030;2022-10-23T06:20:46;8.95;;;3.22;;
32080;SDS011;18593;51.426;7.030;2022-10-23T06:23:22;9.07;;;3.15;;
32080;SDS011;18593;51.426;7.030;2022-10-23T06:26:45;9.80;;;2.95;;
32080;SDS011;18593;51.426;7.030;2022-10-23T06:29:17;8.98;;;3.28;;
32080;SDS011;18593;51.426;7.030;2022-10-23T06:31:45;10.57;;;3.25;;
32080;SDS011;18593;51.426;7.030;2022-10-23T06:34:12;10.60;;;2.63;;
32080;SDS011;18593;51.426;7.030;2022-10-23T06:36:41;11.23;;;3.28;;
32080;SDS011;18593;51.426;7.030;2022-10-23T06:39:28;7.63;;;2.67;;
32080;SDS011;18593;51.426;7.030;2022-10-23T06:42:05;9.70;;;3.00;;
32080;SDS011;18593;51.426;7.030;2022-10-23T06:44:51;9.10;;;2.85;;
32080;SDS011;18593;51.426;7.030;2022-10-23T06:47:44;5.85;;;2.40;;
32080;SDS011;18593;51.426;7.030;2022-10-23T06:50:29;7.35;;;2.40;;
32080;SDS011;18593;51.426;7.030;2022-10-23T06:52:59;8.20;;;2.70;;
32080;SDS011;18593;51.426;7.030;2022-10-23T06:55:26;7.55;;;2.38;;
32080;SDS011;18593;51.426;7.030;2022-10-23T06:57:53;12.80;;;2.50;;
32080;SDS011;18593;51.426;7.030;2022-10-23T07:00:21;11.82;;;2.70;;
32080;SDS011;18593;51.426;7.030;2022-10-23T07:02:50;7.88;;;2.30;;
32080;SDS011;18593;51.426;7.030;2022-10-23T07:05:18;13.48;;;2.72;;
32080;SDS011;18593;51.426;7.030;2022-10-23T07:07:48;6.38;;;2.13;;
32080;SDS011;18593;51.426;7.030;2022-10-23T07:10:29;10.02;;;2.83;;
32080;SDS011;18593;51.426;7.030;2022-10-23T07:13:01;13.15;;;2.75;;
32080;SDS011;18593;51.426;7.030;2022-10-23T07:15:39;8.57;;;2.85;;
32080;SDS011;18593;51.426;7.030;2022-10-23T07:18:10;7.60;;;2.10;;
32080;SDS011;18593;51.426;7.030;2022-10-23T07:21:04;7.15;;;2.30;;
32080;SDS011;18593;51.426;7.030;2022-10-23T07:23:31;6.95;;;2.42;;
32080;SDS011;18593;51.426;7.030;2022-10-23T07:26:03;11.85;;;2.28;;
32080;SDS011;18593;51.426;7.030;2022-10-23T07:28:32;5.07;;;2.08;;
32080;SDS011;18593;51.426;7.030;2022-10-23T07:31:00;11.10;;;2.55;;
32080;SDS011;18593;51.426;7.030;2022-10-23T07:33:47;11.55;;;2.65;;
32080;SDS011;18593;51.426;7.030;2022-10-23T07:36:17;8.18;;;2.60;;
32080;SDS011;18593;51.426;7.030;2022-10-23T07:38:45;11.50;;;2.20;;
32080;SDS011;18593;51.426;7.030;2022-10-23T07:41:14;7.40;;;2.00;;
32080;SDS011;18593;51.426;7.030;2022-10-23T07:43:42;10.57;;;2.30;;
32080;SDS011;18593;51.426;7.030;2022-10-23T07:46:10;9.48;;;2.22;;
32080;SDS011;18593;51.426;7.030;2022-10-23T07:48:40;10.52;;;2.33;;
32080;SDS011;18593;51.426;7.030;2022-10-23T07:51:09;9.95;;;2.40;;
32080;SDS011;18593;51.426;7.030;2022-10-23T07:53:42;8.85;;;2.33;;
32080;SDS011;18593;51.426;7.030;2022-10-23T07:56:42;8.82;;;2.50;;
32080;SDS011;18593;51.426;7.030;2022-10-23T07:59:19;6.32;;;1.98;;
32080;SDS011;18593;51.426;7.030;2022-10-23T08:01:52;9.95;;;2.50;;
32080;SDS011;18593;51.426;7.030;2022-10-23T08:04:22;7.65;;;2.33;;
32080;SDS011;18593;51.426;7.030;2022-10-23T08:06:55;6.07;;;2.25;;
32080;SDS011;18593;51.426;7.030;2022-10-23T08:09:24;11.38;;;2.35;;
32080;SDS011;18593;51.426;7.030;2022-10-23T08:11:52;6.38;;;2.03;;
32080;SDS011;18593;51.426;7.030;2022-10-23T08:14:22;7.53;;;2.33;;
32080;SDS011;18593;51.426;7.030;2022-10-23T08:16:49;8.32;;;1.85;;
32080;SDS011;18593;51.426;7.030;2022-10-23T08:19:16;6.93;;;1.85;;
32080;SDS011;18593;51.426;7.030;2022-10-23T08:21:45;6.80;;;2.03;;
32080;SDS011;18593;51.426;7.030;2022-10-23T08:24:12;9.68;;;2.20;;
32080;SDS011;18593;51.426;7.030;2022-10-23T08:26:42;11.55;;;2.22;;
32080;SDS011;18593;51.426;7.030;2022-10-23T08:29:12;6.65;;;1.80;;
32080;SDS011;18593;51.426;7.030;2022-10-23T08:31:40;4.05;;;1.77;;
32080;SDS011;18593;51.426;7.030;2022-10-23T08:34:20;8.47;;;2.43;;
32080;SDS011;18593;51.426;7.030;2022-10-23T08:36:48;7.82;;;2.10;;
32080;SDS011;18593;51.426;7.030;2022-10-23T08:39:16;11.60;;;2.45;;
32080;SDS011;18593;51.426;7.030;2022-10-23T08:42:00;6.10;;;1.80;;
32080;SDS011;18593;51.426;7.030;2022-10-23T08:44:29;9.43;;;2.58;;
32080;SDS011;18593;51.426;7.030;2022-10-23T08:47:02;7.05;;;1.95;;
32080;SDS011;18593;51.426;7.030;2022-10-23T08:49:58;7.13;;;1.75;;
32080;SDS011;18593;51.426;7.030;2022-10-23T08:52:28;7.72;;;2.38;;
32080;SDS011;18593;51.426;7.030;2022-10-23T08:55:02;7.18;;;2.05;;
32080;SDS011;18593;51.426;7.030;2022-10-23T08:57:34;11.52;;;1.90;;
32080;SDS011;18593;51.426;7.030;2022-10-23T09:00:07;13.25;;;1.90;;
32080;SDS011;18593;51.426;7.030;2022-10-23T09:02:39;5.22;;;1.45;;
32080;SDS011;18593;51.426;7.030;2022-10-23T09:05:10;5.47;;;1.63;;
32080;SDS011;18593;51.426;7.030;2022-10-23T09:07:43;6.38;;;1.73;;
32080;SDS011;18593;51.426;7.030;2022-10-23T09:10:23;5.47;;;1.95;;
32080;SDS011;18593;51.426;7.030;2022-10-23T09:13:02;5.13;;;1.85;;
32080;SDS011;18593;51.426;7.030;2022-10-23T09:15:40;7.57;;;2.08;;
32080;SDS011;18593;51.426;7.030;2022-10-23T09:18:09;8.70;;;1.65;;
32080;SDS011;18593;51.426;7.030;2022-10-23T09:20:38;7.25;;;1.75;;
32080;SDS011;18593;51.426;7.030;2022-10-23T09:23:11;7.05;;;1.80;;
32080;SDS011;18593;51.426;7.030;2022-10-23T09:25:41;5.53;;;1.70;;
32080;SDS011;18593;51.426;7.030;2022-10-23T09:28:11;5.40;;;1.67;;
32080;SDS011;18593;51.426;7.030;2022-10-23T09:30:46;6.03;;;1.63;;
32080;SDS011;18593;51.426;7.030;2022-10-23T09:33:14;6.40;;;1.80;;
32080;SDS011;18593;51.426;7.030;2022-10-23T09:36:07;7.57;;;2.25;;
32080;SDS011;18593;51.426;7.030;2022-10-23T09:39:00;6.03;;;1.88;;
32080;SDS011;18593;51.426;7.030;2022-10-23T09:41:28;5.88;;;2.00;;
32080;SDS011;18593;51.426;7.030;2022-10-23T09:44:12;4.97;;;1.70;;
32080;SDS011;18593;51.426;7.030;2022-10-23T09:46:46;8.32;;;1.80;;
32080;SDS011;18593;51.426;7.030;2022-10-23T09:49:15;7.70;;;2.00;;
32080;SDS011;18593;51.426;7.030;2022-10-23T09:51:53;6.18;;;1.77;;
32080;SDS011;18593;51.426;7.030;2022-10-23T09:54:25;6.22;;;2.03;;
32080;SDS011;18593;51.426;7.030;2022-10-23T09:56:55;7.78;;;1.80;;
32080;SDS011;18593;51.426;7.030;2022-10-23T09:59:24;7.20;;;1.80;;
32080;SDS011;18593;51.426;7.030;2022-10-23T10:01:57;5.38;;;1.58;;
32080;SDS011;18593;51.426;7.030;2022-10-23T10:08:51;8.05;;;1.65;;
32080;SDS011;18593;51.426;7.030;2022-10-23T10:11:21;8.73;;;1.95;;
32080;SDS011;18593;51.426;7.030;2022-10-23T10:14:02;8.70;;;1.80;;
32080;SDS011;18593;51.426;7.030;2022-10-23T10:16:50;4.95;;;1.58;;
32080;SDS011;18593;51.426;7.030;2022-10-23T10:19:21;5.63;;;1.70;;
32080;SDS011;18593;51.426;7.030;2022-10-23T10:21:55;7.10;;;2.20;;
32080;SDS011;18593;51.426;7.030;2022-10-23T10:24:34;11.73;;;2.53;;
32080;SDS011;18593;51.426;7.030;2022-10-23T10:27:06;8.32;;;1.90;;
32080;SDS011;18593;51.426;7.030;2022-10-23T10:29:43;5.28;;;2.08;;
32080;SDS011;18593;51.426;7.030;2022-10-23T10:32:19;7.93;;;1.52;;
32080;SDS011;18593;51.426;7.030;2022-10-23T10:34:57;5.60;;;2.10;;
32080;SDS011;18593;51.426;7.030;2022-10-23T10:37:32;6.15;;;1.65;;
32080;SDS011;18593;51.426;7.030;2022-10-23T10:40:07;8.07;;;1.95;;
32080;SDS011;18593;51.426;7.030;2022-10-23T10:42:44;7.15;;;1.83;;
32080;SDS011;18593;51.426;7.030;2022-10-23T10:45:26;4.72;;;1.65;;
32080;SDS011;18593;51.426;7.030;2022-10-23T10:48:02;4.38;;;1.50;;
32080;SDS011;18593;51.426;7.030;2022-10-23T10:51:18;8.80;;;1.90;;
32080;SDS011;18593;51.426;7.030;2022-10-23T10:53:51;6.15;;;1.77;;
32080;SDS011;18593;51.426;7.030;2022-10-23T10:56:24;5.95;;;1.75;;
32080;SDS011;18593;51.426;7.030;2022-10-23T10:58:54;7.93;;;2.10;;
32080;SDS011;18593;51.426;7.030;2022-10-23T11:01:25;5.15;;;1.58;;
32080;SDS011;18593;51.426;7.030;2022-10-23T11:03:54;8.83;;;2.00;;
32080;SDS011;18593;51.426;7.030;2022-10-23T11:06:25;4.65;;;1.85;;
32080;SDS011;18593;51.426;7.030;2022-10-23T11:08:55;11.70;;;1.90;;
32080;SDS011;18593;51.426;7.030;2022-10-23T11:11:30;4.65;;;1.48;;
32080;SDS011;18593;51.426;7.030;2022-10-23T11:14:00;6.85;;;2.13;;
32080;SDS011;18593;51.426;7.030;2022-10-23T11:16:28;6.72;;;1.92;;
32080;SDS011;18593;51.426;7.030;2022-10-23T11:19:00;8.77;;;1.98;;
32080;SDS011;18593;51.426;7.030;2022-10-23T11:21:33;7.25;;;1.70;;
32080;SDS011;18593;51.426;7.030;2022-10-23T11:27:02;6.95;;;1.60;;
32080;SDS011;18593;51.426;7.030;2022-10-23T11:29:50;5.72;;;1.60;;
32080;SDS011;18593;51.426;7.030;2022-10-23T11:32:55;5.00;;;1.60;;
32080;SDS011;18593;51.426;7.030;2022-10-23T11:35:47;6.05;;;1.88;;
32080;SDS011;18593;51.426;7.030;2022-10-23T11:38:22;9.90;;;1.83;;
32080;SDS011;18593;51.426;7.030;2022-10-23T11:40:52;10.57;;;1.73;;
32080;SDS011;18593;51.426;7.030;2022-10-23T11:43:24;6.32;;;1.92;;
32080;SDS011;18593;51.426;7.030;2022-10-23T11:45:55;3.80;;;1.40;;
32080;SDS011;18593;51.426;7.030;2022-10-23T11:48:34;6.00;;;1.83;;
32080;SDS011;18593;51.426;7.030;2022-10-23T11:51:02;4.43;;;1.50;;
32080;SDS011;18593;51.426;7.030;2022-10-23T11:53:38;6.30;;;1.40;;
32080;SDS011;18593;51.426;7.030;2022-10-23T11:58:52;5.72;;;1.40;;
32080;SDS011;18593;51.426;7.030;2022-10-23T12:01:30;4.60;;;1.30;;
32080;SDS011;18593;51.426;7.030;2022-10-23T12:04:01;6.13;;;1.47;;
32080;SDS011;18593;51.426;7.030;2022-10-23T12:06:31;7.00;;;1.63;;
32080;SDS011;18593;51.426;7.030;2022-10-23T12:09:00;6.50;;;1.63;;
32080;SDS011;18593;51.426;7.030;2022-10-23T12:11:43;7.45;;;1.52;;
32080;SDS011;18593;51.426;7.030;2022-10-23T12:14:25;7.93;;;1.80;;
32080;SDS011;18593;51.426;7.030;2022-10-23T12:16:54;14.40;;;1.63;;
32080;SDS011;18593;51.426;7.030;2022-10-23T12:19:21;5.13;;;1.63;;
32080;SDS011;18593;51.426;7.030;2022-10-23T12:21:50;4.65;;;1.65;;
32080;SDS011;18593;51.426;7.030;2022-10-23T12:27:26;7.68;;;1.63;;
32080;SDS011;18593;51.426;7.030;2022-10-23T12:30:02;10.30;;;1.90;;
32080;SDS011;18593;51.426;7.030;2022-10-23T12:32:47;6.35;;;1.88;;
32080;SDS011;18593;51.426;7.030;2022-10-23T12:38:47;13.40;;;2.08;;
32080;SDS011;18593;51.426;7.030;2022-10-23T12:41:16;9.23;;;2.17;;
32080;SDS011;18593;51.426;7.030;2022-10-23T12:43:49;6.60;;;1.95;;
32080;SDS011;18593;51.426;7.030;2022-10-23T12:46:24;6.68;;;2.08;;
32080;SDS011;18593;51.426;7.030;2022-10-23T12:48:54;8.70;;;1.98;;
32080;SDS011;18593;51.426;7.030;2022-10-23T12:51:22;7.95;;;1.95;;
32080;SDS011;18593;51.426;7.030;2022-10-23T12:53:50;11.40;;;2.20;;
32080;SDS011;18593;51.426;7.030;2022-10-23T12:56:18;8.52;;;1.90;;
32080;SDS011;18593;51.426;7.030;2022-10-23T12:58:47;7.70;;;1.80;;
32080;SDS011;18593;51.426;7.030;2022-10-23T13:01:21;10.93;;;2.40;;
32080;SDS011;18593;51.426;7.030;2022-10-23T13:03:49;10.05;;;1.85;;
32080;SDS011;18593;51.426;7.030;2022-10-23T13:06:17;5.38;;;1.95;;
32080;SDS011;18593;51.426;7.030;2022-10-23T13:08:45;9.93;;;2.85;;
32080;SDS011;18593;51.426;7.030;2022-10-23T13:11:39;6.00;;;1.95;;
32080;SDS011;18593;51.426;7.030;2022-10-23T13:14:11;7.13;;;2.13;;
32080;SDS011;18593;51.426;7.030;2022-10-23T13:16:39;6.70;;;1.67;;
32080;SDS011;18593;51.426;7.030;2022-10-23T13:19:06;8.18;;;2.15;;
32080;SDS011;18593;51.426;7.030;2022-10-23T13:21:46;5.30;;;1.80;;
32080;SDS011;18593;51.426;7.030;2022-10-23T13:24:15;5.63;;;2.05;;
32080;SDS011;18593;51.426;7.030;2022-10-23T13:29:32;9.52;;;2.50;;
32080;SDS011;18593;51.426;7.030;2022-10-23T13:32:11;6.82;;;1.92;;
32080;SDS011;18593;51.426;7.030;2022-10-23T13:34:49;6.68;;;2.17;;
32080;SDS011;18593;51.426;7.030;2022-10-23T13:37:21;5.22;;;2.03;;
32080;SDS011;18593;51.426;7.030;2022-10-23T13:39:57;8.80;;;2.00;;
32080;SDS011;18593;51.426;7.030;2022-10-23T13:42:26;12.93;;;2.17;;
32080;SDS011;18593;51.426;7.030;2022-10-23T13:44:53;8.43;;;2.40;;
32080;SDS011;18593;51.426;7.030;2022-10-23T13:47:21;7.60;;;2.40;;
32080;SDS011;18593;51.426;7.030;2022-10-23T13:49:47;8.15;;;2.33;;
32080;SDS011;18593;51.426;7.030;2022-10-23T13:52:16;5.78;;;2.08;;
32080;SDS011;18593;51.426;7.030;2022-10-23T13:54:47;7.00;;;2.17;;
32080;SDS011;18593;51.426;7.030;2022-10-23T13:57:14;6.95;;;2.10;;
32080;SDS011;18593;51.426;7.030;2022-10-23T13:59:43;6.72;;;1.80;;
32080;SDS011;18593;51.426;7.030;2022-10-23T14:02:13;10.45;;;2.63;;
32080;SDS011;18593;51.426;7.030;2022-10-23T14:04:44;6.53;;;1.98;;
32080;SDS011;18593;51.426;7.030;2022-10-23T14:07:11;7.18;;;2.50;;
32080;SDS011;18593;51.426;7.030;2022-10-23T14:09:38;9.13;;;2.13;;
32080;SDS011;18593;51.426;7.030;2022-10-23T14:12:05;7.50;;;2.25;;
32080;SDS011;18593;51.426;7.030;2022-10-23T14:14:32;7.00;;;2.58;;
32080;SDS011;18593;51.426;7.030;2022-10-23T14:17:00;8.27;;;2.00;;
32080;SDS011;18593;51.426;7.030;2022-10-23T14:19:27;12.55;;;2.92;;
32080;SDS011;18593;51.426;7.030;2022-10-23T14:21:54;9.60;;;2.50;;
32080;SDS011;18593;51.426;7.030;2022-10-23T14:24:21;7.53;;;2.13;;
32080;SDS011;18593;51.426;7.030;2022-10-23T14:26:48;7.32;;;2.15;;
32080;SDS011;18593;51.426;7.030;2022-10-23T14:29:15;9.50;;;2.35;;
32080;SDS011;18593;51.426;7.030;2022-10-23T14:31:42;6.30;;;2.10;;
32080;SDS011;18593;51.426;7.030;2022-10-23T14:34:11;8.82;;;2.17;;
32080;SDS011;18593;51.426;7.030;2022-10-23T14:36:38;12.40;;;2.63;;
32080;SDS011;18593;51.426;7.030;2022-10-23T14:39:05;8.25;;;2.25;;
32080;SDS011;18593;51.426;7.030;2022-10-23T14:41:31;3.97;;;1.98;;
32080;SDS011;18593;51.426;7.030;2022-10-23T14:43:58;8.25;;;2.17;;
32080;SDS011;18593;51.426;7.030;2022-10-23T14:46:25;7.97;;;2.38;;
32080;SDS011;18593;51.426;7.030;2022-10-23T14:48:53;8.18;;;2.25;;
32080;SDS011;18593;51.426;7.030;2022-10-23T14:51:22;7.65;;;2.15;;
32080;SDS011;18593;51.426;7.030;2022-10-23T14:53:53;5.40;;;2.10;;
32080;SDS011;18593;51.426;7.030;2022-10-23T14:56:21;8.27;;;2.30;;
32080;SDS011;18593;51.426;7.030;2022-10-23T14:58:48;7.35;;;2.10;;
32080;SDS011;18593;51.426;7.030;2022-10-23T15:01:15;10.10;;;2.38;;
32080;SDS011;18593;51.426;7.030;2022-10-23T15:03:42;10.57;;;2.30;;
32080;SDS011;18593;51.426;7.030;2022-10-23T15:06:09;8.43;;;2.63;;
32080;SDS011;18593;51.426;7.030;2022-10-23T15:08:37;10.45;;;2.30;;
32080;SDS011;18593;51.426;7.030;2022-10-23T15:11:04;8.25;;;2.05;;
32080;SDS011;18593;51.426;7.030;2022-10-23T15:13:31;9.07;;;2.50;;
32080;SDS011;18593;51.426;7.030;2022-10-23T15:16:02;7.28;;;2.30;;
32080;SDS011;18593;51.426;7.030;2022-10-23T15:20:56;9.43;;;2.95;;
32080;SDS011;18593;51.426;7.030;2022-10-23T15:23:24;5.72;;;2.45;;
32080;SDS011;18593;51.426;7.030;2022-10-23T15:25:56;9.13;;;2.60;;
32080;SDS011;18593;51.426;7.030;2022-10-23T15:28:23;11.93;;;3.10;;
32080;SDS011;18593;51.426;7.030;2022-10-23T15:30:50;9.95;;;2.70;;
32080;SDS011;18593;51.426;7.030;2022-10-23T15:33:17;6.13;;;2.63;;
32080;SDS011;18593;51.426;7.030;2022-10-23T15:35:44;6.18;;;2.50;;
32080;SDS011;18593;51.426;7.030;2022-10-23T15:38:11;10.90;;;2.80;;
32080;SDS011;18593;51.426;7.030;2022-10-23T15:40:40;8.40;;;3.42;;
32080;SDS011;18593;51.426;7.030;2022-10-23T15:43:10;7.20;;;3.05;;
32080;SDS011;18593;51.426;7.030;2022-10-23T15:45:37;13.38;;;3.70;;
32080;SDS011;18593;51.426;7.030;2022-10-23T15:48:05;13.30;;;4.38;;